首页
METAR-TAF:

METAR-TAF

机场 :

Bearce Airport

Mount Ida, 阿肯色州, 美国

纬度: 34-33N, 经度: 093-35W, 海拔: 214米

当前天气观测

该预报发布于8小时和22分钟前的13:53 UTC
静风
温度 -6°C
湿度 93%
气压 1033 hPa
能見度: 16.1公里
天空无云

METAR: KMWT 111353Z AUTO 00000KT 10SM CLR M06/M07 A3051 RMK AO2 SLP349 T10561067

时间: 16:15 (22:15 UTC)


TAF: 丢失

超过4000个机场的气象观测和天气预报(METAR&TAF报告)。

可查询的气象台以黄色和红色小点在地图上表示。

将鼠标移到小点上方,可查看气象台名称。

然后点击查看天气观测和预报。

如需切换地图:点击带黑十字的绿色按钮放大地图;点击带横线的绿色按钮缩小地图;或者点击绿色箭头查看邻近地区的地图。


METAR-TAF: